Time;durP1;ratioP1;P1;durP2;ratioP2;P2;SDS_P1;SDS_P2;PMS_P1;PMS_P2;Temp;Humidity;BMP_temperature;BMP_pressure;BME280_temperature;BME280_humidity;BME280_pressure;Samples;Min_cycle;Max_cycle;Signal;HPM_P1;HPM_P2
2022/12/27 00:01:30;;;;;;;;;1.25;0.50;;;;;6.66;69.78;101977.47;5063208;28;10635;-66
2022/12/27 00:03:56;;;;;;;;;1.00;1.00;;;;;6.65;69.89;101970.44;5065576;28;10791;-66
2022/12/27 00:06:25;;;;;;;;;0.00;0.00;;;;;6.67;69.78;101973.81;5062296;28;10726;-64
2022/12/27 00:08:52;;;;;;;;;2.00;0.75;;;;;6.73;69.94;101969.75;5063737;28;10826;-66
2022/12/27 00:11:22;;;;;;;;;0.00;0.00;;;;;6.74;69.69;101970.59;5068043;28;10650;-65
2022/12/27 00:13:48;;;;;;;;;1.75;1.00;;;;;6.72;69.64;101965.38;5070356;28;10729;-65
2022/12/27 00:16:18;;;;;;;;;0.00;0.00;;;;;6.73;70.05;101968.91;5066939;28;10790;-65
2022/12/27 00:18:46;;;;;;;;;0.50;0.50;;;;;6.69;70.11;101971.03;5062709;28;11637;-66
2022/12/27 00:21:13;;;;;;;;;0.00;0.00;;;;;6.69;69.42;101971.03;5069902;28;10707;-65
2022/12/27 00:23:42;;;;;;;;;1.75;0.75;;;;;6.67;69.86;101968.47;5055107;28;10649;-65
2022/12/27 00:26:17;;;;;;;;;5.50;4.50;;;;;6.69;70.57;101966.50;5050903;28;10732;-65
2022/12/27 00:28:44;;;;;;;;;0.00;0.00;;;;;6.73;70.68;101975.09;5050887;28;10880;-66
2022/12/27 00:31:12;;;;;;;;;1.50;1.25;;;;;6.77;70.17;101965.81;5051703;28;10723;-65
2022/12/27 00:33:40;;;;;;;;;0.25;0.00;;;;;6.67;70.06;101978.31;5065783;28;10809;-66
2022/12/27 00:36:10;;;;;;;;;0.00;0.00;;;;;6.71;69.70;101973.53;5066529;28;10543;-65
2022/12/27 00:38:36;;;;;;;;;0.00;0.00;;;;;6.65;69.33;101980.31;5066577;28;10713;-66
2022/12/27 00:41:03;;;;;;;;;1.50;0.00;;;;;6.68;69.89;101980.00;5051897;28;10809;-65
2022/12/27 00:43:30;;;;;;;;;0.00;0.00;;;;;6.70;69.77;101980.72;5053947;28;10638;-65
2022/12/27 00:45:57;;;;;;;;;1.00;0.00;;;;;6.69;69.41;101984.41;5060625;28;10691;-65
2022/12/27 00:48:24;;;;;;;;;0.50;0.50;;;;;6.67;69.64;101989.03;5068834;28;11281;-66
2022/12/27 00:50:57;;;;;;;;;0.00;0.00;;;;;6.67;69.59;101991.69;5073891;28;10788;-66
2022/12/27 00:53:23;;;;;;;;;2.00;0.25;;;;;6.59;69.42;101991.56;5066819;28;10648;-66
2022/12/27 00:55:50;;;;;;;;;0.25;0.25;;;;;6.58;70.06;101995.22;5071379;28;10620;-67
2022/12/27 00:58:16;;;;;;;;;0.00;0.00;;;;;6.54;69.80;101999.16;5076932;28;10736;-66
2022/12/27 01:00:43;;;;;;;;;1.50;0.00;;;;;6.56;70.28;102011.44;5061219;28;10645;-67
2022/12/27 01:03:09;;;;;;;;;1.00;0.00;;;;;6.53;70.48;102000.16;5075307;28;10790;-65
2022/12/27 01:05:36;;;;;;;;;0.00;0.00;;;;;6.56;70.04;102006.09;5069678;28;10703;-66
2022/12/27 01:08:04;;;;;;;;;1.00;1.00;;;;;6.55;69.96;102014.22;5067698;28;10710;-65
2022/12/27 01:10:31;;;;;;;;;0.00;0.00;;;;;6.53;70.27;102009.03;5081909;28;10629;-66
2022/12/27 01:13:00;;;;;;;;;2.00;0.75;;;;;6.57;69.77;102014.94;5071425;28;10702;-67
2022/12/27 01:15:26;;;;;;;;;0.00;0.00;;;;;6.57;70.09;102014.94;5065499;28;10757;-66
2022/12/27 01:17:53;;;;;;;;;2.00;0.00;;;;;6.54;70.17;102015.22;5069448;28;10687;-65
2022/12/27 01:20:20;;;;;;;;;0.00;0.00;;;;;6.54;70.08;102026.75;5087573;28;10705;-66
2022/12/27 01:22:47;;;;;;;;;0.25;0.25;;;;;6.53;70.03;102025.06;5069618;28;10718;-65
2022/12/27 01:25:13;;;;;;;;;0.25;0.25;;;;;6.54;69.52;102020.56;5081813;28;10532;-67
2022/12/27 01:27:39;;;;;;;;;3.25;0.00;;;;;6.53;70.50;102018.88;5076577;28;10690;-67
2022/12/27 01:30:07;;;;;;;;;0.25;0.00;;;;;6.55;71.23;102030.28;5069239;28;10660;-66
2022/12/27 01:32:33;;;;;;;;;0.00;0.00;;;;;6.56;71.47;102026.59;5073616;28;10735;-66
2022/12/27 01:35:00;;;;;;;;;0.00;0.00;;;;;6.47;71.88;102024.78;5068092;28;10617;-66
2022/12/27 01:37:28;;;;;;;;;4.00;0.75;;;;;6.44;71.92;102040.13;5073780;28;10573;-64
2022/12/27 01:39:55;;;;;;;;;0.75;0.75;;;;;6.41;72.25;102043.06;5067110;28;10733;-66
2022/12/27 01:45:15;;;;;;;;;0.00;0.00;;;;;6.44;71.50;102036.59;5070300;28;10713;-67
2022/12/27 01:47:45;;;;;;;;;0.00;0.00;;;;;6.36;72.92;102058.69;5078586;28;10650;-65
2022/12/27 01:50:26;;;;;;;;;0.00;0.00;;;;;6.38;73.00;102048.69;5094058;28;10764;-67
2022/12/27 01:53:13;;;;;;;;;0.75;0.75;;;;;6.24;72.09;102046.41;5069465;28;10632;-66
2022/12/27 01:55:57;;;;;;;;;0.00;0.00;;;;;6.18;71.64;102042.44;5067925;28;10661;-65
2022/12/27 01:58:32;;;;;;;;;0.00;0.00;;;;;6.15;71.80;102055.22;5060035;28;10837;-64
2022/12/27 02:00:58;;;;;;;;;1.00;0.00;;;;;6.15;71.47;102058.75;5076409;28;10613;-67
2022/12/27 02:03:35;;;;;;;;;0.00;0.00;;;;;6.20;72.11;102058.38;5077675;28;10761;-65
2022/12/27 02:06:04;;;;;;;;;0.00;0.00;;;;;6.17;72.34;102067.50;5072245;28;10653;-64
2022/12/27 02:08:40;;;;;;;;;0.50;0.00;;;;;6.17;72.01;102070.16;5064660;28;10656;-65
2022/12/27 02:11:08;;;;;;;;;0.00;0.00;;;;;6.27;72.01;102082.72;5075424;28;11445;-65
2022/12/27 02:13:40;;;;;;;;;0.75;0.75;;;;;6.31;72.09;102079.63;5070730;28;11556;-66
2022/12/27 02:16:17;;;;;;;;;0.00;0.00;;;;;6.33;72.60;102080.34;5068882;28;11458;-65
2022/12/27 02:18:45;;;;;;;;;0.00;0.00;;;;;6.29;72.49;102084.28;5069601;28;10644;-65
2022/12/27 02:21:46;;;;;;;;;0.00;0.00;;;;;6.34;72.68;102084.72;5056804;28;10705;-66
2022/12/27 02:24:43;;;;;;;;;4.00;0.00;;;;;6.38;72.43;102088.81;5073075;28;10791;-65
2022/12/27 02:27:31;;;;;;;;;0.00;0.00;;;;;6.32;72.92;102089.38;5068816;28;10726;-66
2022/12/27 02:30:04;;;;;;;;;0.75;0.75;;;;;6.32;72.17;102093.84;5066763;28;10700;-67
2022/12/27 02:32:59;;;;;;;;;0.00;0.00;;;;;6.34;72.87;102095.41;5065938;28;10813;-66
2022/12/27 02:35:34;;;;;;;;;1.00;1.00;;;;;6.38;73.34;102098.66;5056708;28;10745;-66
2022/12/27 02:38:19;;;;;;;;;0.00;0.00;;;;;6.37;72.81;102111.19;5071632;28;10784;-65
2022/12/27 02:55:40;;;;;;;;;0.00;0.00;;;;;6.40;74.13;102115.41;5055251;28;10692;-64
2022/12/27 02:58:54;;;;;;;;;7.00;2.00;;;;;6.40;73.31;102116.28;5071933;28;10642;-66
2022/12/27 03:05:18;;;;;;;;;0.00;0.00;;;;;6.39;73.41;102119.91;5066954;28;10695;-65
2022/12/27 03:08:03;;;;;;;;;1.00;1.00;;;;;6.37;73.94;102124.56;5028287;28;10900;-66
2022/12/27 03:16:40;;;;;;;;;0.00;0.00;;;;;6.35;73.47;102118.47;5071796;28;10916;-65
2022/12/27 03:25:26;;;;;;;;;0.00;0.00;;;;;6.34;73.45;102113.28;5076516;28;10916;-66
2022/12/27 03:33:11;;;;;;;;;1.00;1.00;;;;;6.25;73.83;102120.28;5062525;28;10687;-65
2022/12/27 03:33:18;;;;;;;;;0.00;0.00;;;;;6.33;73.27;102131.16;5073061;28;10707;-66
2022/12/27 03:39:12;;;;;;;;;1.00;1.00;;;;;6.25;72.45;102136.34;5063761;28;10770;-65
2022/12/27 03:44:30;;;;;;;;;0.00;0.00;;;;;6.27;72.65;102136.19;5065745;28;10632;-64
2022/12/27 03:46:59;;;;;;;;;1.00;1.00;;;;;6.27;72.48;102138.88;5068973;28;10735;-65
2022/12/27 03:49:43;;;;;;;;;0.75;0.75;;;;;6.22;72.04;102136.59;5068288;28;10731;-66
2022/12/27 03:52:16;;;;;;;;;0.75;0.00;;;;;6.25;72.57;102136.34;5064109;28;11482;-65
2022/12/27 03:54:45;;;;;;;;;0.50;0.00;;;;;6.24;72.05;102142.69;5064279;28;10975;-66
2022/12/27 03:57:21;;;;;;;;;0.50;0.50;;;;;6.24;72.24;102147.16;5070817;28;10868;-66
2022/12/27 03:59:48;;;;;;;;;1.25;0.00;;;;;6.22;72.12;102154.47;5071198;28;10923;-66
2022/12/27 04:02:15;;;;;;;;;0.25;0.00;;;;;6.26;71.82;102146.03;5069854;28;11697;-66
2022/12/27 04:04:41;;;;;;;;;0.00;0.00;;;;;6.28;71.84;102149.44;5062738;28;10857;-65
2022/12/27 04:07:11;;;;;;;;;0.00;0.00;;;;;6.30;71.88;102142.13;5063806;28;10879;-66
2022/12/27 04:37:13;;;;;;;;;0.00;0.00;;;;;6.22;72.21;102163.34;5066455;28;10851;-66
2022/12/27 04:39:40;;;;;;;;;1.25;1.00;;;;;6.24;72.47;102166.75;5065270;28;10880;-66
2022/12/27 04:56:05;;;;;;;;;1.00;0.25;;;;;6.09;72.44;102160.88;5056958;28;11000;-66
2022/12/27 04:58:32;;;;;;;;;0.25;0.25;;;;;6.11;72.05;102166.94;5070359;28;10952;-66
2022/12/27 05:03:50;;;;;;;;;1.50;0.00;;;;;6.14;72.09;102164.00;5063199;28;11625;-68
2022/12/27 05:06:17;;;;;;;;;0.00;0.00;;;;;6.17;71.51;102176.25;5065038;28;11067;-66
2022/12/27 05:14:14;;;;;;;;;1.00;1.00;;;;;6.17;71.71;102176.25;5058282;28;10876;-66
2022/12/27 05:16:43;;;;;;;;;4.00;0.25;;;;;6.19;71.74;102177.81;5062768;28;10780;-65
2022/12/27 05:19:12;;;;;;;;;1.50;1.00;;;;;6.21;71.75;102182.19;5063201;28;10648;-66
2022/12/27 05:25:33;;;;;;;;;0.00;0.00;;;;;6.24;72.06;102176.56;5066552;28;10904;-66
2022/12/27 05:27:16;;;;;;;;;1.00;1.00;;;;;6.20;71.35;102178.69;5054965;28;10719;-65
2022/12/27 05:29:43;;;;;;;;;1.75;1.00;;;;;6.13;71.63;102186.38;5050549;28;10807;-64
2022/12/27 05:32:09;;;;;;;;;1.00;1.00;;;;;6.10;71.15;102188.47;5055443;28;10749;-66
2022/12/27 05:34:39;;;;;;;;;1.00;1.00;;;;;6.14;71.80;102196.09;5063294;28;10720;-65
2022/12/27 05:37:05;;;;;;;;;2.00;0.00;;;;;6.18;71.75;102194.84;5066789;28;10767;-65
2022/12/27 05:39:32;;;;;;;;;0.00;0.00;;;;;6.21;71.29;102204.44;5068400;28;10861;-67
2022/12/27 05:41:58;;;;;;;;;0.75;0.00;;;;;6.21;71.35;102201.75;5063365;28;10867;-67
2022/12/27 05:44:25;;;;;;;;;1.00;1.00;;;;;6.20;71.85;102202.75;5068828;28;10728;-67
2022/12/27 05:46:53;;;;;;;;;0.00;0.00;;;;;6.18;71.67;102204.69;5069891;28;11357;-65
2022/12/27 05:49:20;;;;;;;;;1.00;1.00;;;;;6.14;72.28;102205.94;5056193;28;10842;-65
2022/12/27 05:51:47;;;;;;;;;0.00;0.00;;;;;6.14;71.58;102205.94;5058325;28;10961;-65
2022/12/27 05:54:14;;;;;;;;;0.00;0.00;;;;;6.14;72.06;102200.59;5052809;28;10867;-65
2022/12/27 05:56:40;;;;;;;;;1.00;0.00;;;;;6.12;71.71;102207.91;5050284;28;10934;-65
2022/12/27 05:59:07;;;;;;;;;0.00;0.00;;;;;6.17;72.22;102206.53;5050230;28;10997;-65
2022/12/27 06:01:33;;;;;;;;;1.00;0.75;;;;;6.17;71.89;102203.84;5058610;28;10759;-65
2022/12/27 06:04:00;;;;;;;;;0.00;0.00;;;;;6.14;71.73;102214.78;5063842;28;10795;-66
2022/12/27 06:06:27;;;;;;;;;0.25;0.25;;;;;6.12;71.85;102221.28;5069122;28;10945;-65
2022/12/27 06:08:54;;;;;;;;;0.50;0.00;;;;;6.12;71.53;102224.78;5058314;28;10890;-66
2022/12/27 06:11:20;;;;;;;;;0.00;0.00;;;;;6.13;72.23;102229.16;5064856;28;10722;-64
2022/12/27 06:13:50;;;;;;;;;0.00;0.00;;;;;6.10;72.09;102226.72;5058058;28;10949;-66
2022/12/27 06:16:17;;;;;;;;;1.75;1.75;;;;;6.12;72.10;102231.97;5068487;28;10900;-66
2022/12/27 06:18:43;;;;;;;;;0.00;0.00;;;;;6.11;72.04;102232.91;5069499;28;10952;-65
2022/12/27 06:21:15;;;;;;;;;0.00;0.00;;;;;6.12;72.09;102234.63;5072934;28;10873;-65
2022/12/27 06:23:43;;;;;;;;;0.00;0.00;;;;;6.12;71.66;102243.50;5069499;28;10818;-65
2022/12/27 06:26:14;;;;;;;;;0.00;0.00;;;;;6.11;72.03;102243.63;5054909;28;10858;-67
2022/12/27 06:28:40;;;;;;;;;0.25;0.25;;;;;6.10;72.03;102233.91;5055101;28;10953;-65
2022/12/27 06:31:08;;;;;;;;;0.00;0.00;;;;;6.09;72.33;102241.06;5062493;28;10776;-66
2022/12/27 06:33:34;;;;;;;;;1.00;0.00;;;;;6.06;72.35;102235.16;5068208;28;10854;-65
2022/12/27 06:36:06;;;;;;;;;1.50;0.50;;;;;6.10;72.09;102249.94;5061993;28;11088;-65
2022/12/27 06:38:32;;;;;;;;;1.00;0.00;;;;;6.15;72.33;102256.59;5069109;28;10791;-65
2022/12/27 06:41:00;;;;;;;;;0.00;0.00;;;;;6.19;72.30;102246.47;5064893;28;10832;-66
2022/12/27 06:43:28;;;;;;;;;0.00;0.00;;;;;6.20;72.00;102258.91;5068459;28;10712;-65
2022/12/27 06:45:56;;;;;;;;;0.50;0.50;;;;;6.20;72.07;102266.91;5067147;28;10708;-66
2022/12/27 06:48:23;;;;;;;;;0.00;0.00;;;;;6.16;71.66;102269.00;5069599;28;11663;-66
2022/12/27 06:50:49;;;;;;;;;0.00;0.00;;;;;6.16;72.11;102258.31;5066209;28;10798;-66
2022/12/27 06:53:16;;;;;;;;;0.00;0.00;;;;;6.15;71.65;102267.28;5069755;28;10925;-65
2022/12/27 06:55:42;;;;;;;;;0.00;0.00;;;;;6.13;71.84;102263.91;5066681;28;10905;-67
2022/12/27 06:58:09;;;;;;;;;0.00;0.00;;;;;6.12;71.80;102264.03;5071699;28;10863;-66
2022/12/27 07:00:36;;;;;;;;;1.25;0.00;;;;;6.11;71.86;102259.66;5060453;28;10713;-65
2022/12/27 07:03:03;;;;;;;;;0.75;0.75;;;;;6.10;72.34;102257.97;5064551;28;10780;-65
2022/12/27 07:05:29;;;;;;;;;0.75;0.00;;;;;6.08;72.03;102263.44;5068919;28;10804;-64
2022/12/27 07:07:57;;;;;;;;;4.00;0.00;;;;;6.03;72.68;102260.28;5069764;28;11339;-65
2022/12/27 07:10:24;;;;;;;;;0.25;0.25;;;;;6.01;72.47;102250.72;5071693;28;10805;-64
2022/12/27 07:12:51;;;;;;;;;0.00;0.00;;;;;6.01;72.77;102264.09;5070127;28;11694;-65
2022/12/27 07:15:17;;;;;;;;;0.00;0.00;;;;;6.00;72.52;102263.25;5068111;28;10919;-66
2022/12/27 07:17:44;;;;;;;;;1.00;1.00;;;;;5.98;72.29;102264.34;5058307;28;10684;-67
2022/12/27 07:20:10;;;;;;;;;1.00;0.00;;;;;6.01;72.77;102254.25;5059978;28;10826;-65
2022/12/27 07:22:37;;;;;;;;;0.50;0.00;;;;;6.04;73.09;102263.84;5064479;28;10990;-66
2022/12/27 07:25:04;;;;;;;;;1.00;1.00;;;;;5.99;72.20;102271.38;5063228;28;10921;-67
2022/12/27 07:27:34;;;;;;;;;0.00;0.00;;;;;5.93;72.57;102284.28;5054814;28;10776;-67
2022/12/27 07:30:02;;;;;;;;;0.00;0.00;;;;;5.87;72.63;102275.91;5058493;28;10848;-66
2022/12/27 07:32:28;;;;;;;;;1.00;1.00;;;;;5.87;72.57;102286.59;5064943;28;10780;-65
2022/12/27 07:34:55;;;;;;;;;2.00;1.00;;;;;5.87;72.91;102289.25;5070896;28;10917;-64
2022/12/27 07:37:22;;;;;;;;;1.00;0.00;;;;;5.87;72.64;102298.13;5063632;28;10867;-65
2022/12/27 07:39:49;;;;;;;;;1.75;0.00;;;;;5.85;72.96;102286.72;5070331;28;10874;-65
2022/12/27 07:42:15;;;;;;;;;0.75;0.00;;;;;5.84;73.06;102297.56;5069669;28;10893;-65
2022/12/27 07:44:41;;;;;;;;;1.00;0.25;;;;;5.83;73.70;102299.34;5064909;28;11150;-65
2022/12/27 07:47:08;;;;;;;;;1.25;1.00;;;;;5.84;73.29;102310.91;5065156;28;10818;-67
2022/12/27 07:49:34;;;;;;;;;2.00;1.00;;;;;5.79;72.75;102305.94;5068744;28;10856;-67
2022/12/27 07:52:01;;;;;;;;;1.00;0.00;;;;;5.78;73.25;102309.56;5052418;28;10937;-65
2022/12/27 07:54:27;;;;;;;;;1.00;1.00;;;;;5.78;72.93;102314.06;5053812;28;10778;-65
2022/12/27 07:56:54;;;;;;;;;0.50;0.50;;;;;5.79;73.80;102315.75;5066248;28;10906;-65
2022/12/27 07:59:21;;;;;;;;;1.00;1.00;;;;;5.79;73.82;102321.97;5068328;28;10753;-65
2022/12/27 08:02:03;;;;;;;;;0.25;0.25;;;;;5.75;73.47;102325.00;5068203;28;10796;-65
2022/12/27 08:04:31;;;;;;;;;0.00;0.00;;;;;5.73;73.95;102319.81;5051144;28;10855;-64
2022/12/27 08:07:18;;;;;;;;;0.00;0.00;;;;;5.79;73.81;102323.78;5058512;28;10925;-68
2022/12/27 08:09:46;;;;;;;;;0.50;0.50;;;;;5.76;73.45;102324.91;5055539;28;10935;-66
2022/12/27 08:12:13;;;;;;;;;1.00;1.00;;;;;5.76;73.30;102324.91;5057504;28;10823;-65
2022/12/27 08:14:40;;;;;;;;;1.00;1.00;;;;;5.76;74.01;102329.41;5067170;28;10913;-65
2022/12/27 08:17:27;;;;;;;;;2.00;1.00;;;;;5.74;73.47;102329.50;5062413;28;10793;-66
2022/12/27 08:19:54;;;;;;;;;0.00;0.00;;;;;5.74;73.53;102334.00;5062413;28;10866;-65
2022/12/27 08:22:22;;;;;;;;;4.25;1.00;;;;;5.74;73.51;102339.34;5070412;28;10872;-66
2022/12/27 08:24:49;;;;;;;;;1.25;0.00;;;;;5.70;73.34;102342.28;5064420;28;10999;-65
2022/12/27 08:27:21;;;;;;;;;0.25;0.00;;;;;5.67;73.49;102334.53;5059878;28;10927;-65
2022/12/27 08:29:48;;;;;;;;;1.00;1.00;;;;;5.62;73.73;102347.38;5064012;28;10886;-66
2022/12/27 08:32:14;;;;;;;;;2.00;0.00;;;;;5.62;73.65;102346.53;5064250;28;10965;-65
2022/12/27 08:34:41;;;;;;;;;1.00;1.00;;;;;5.63;73.45;102351.78;5070860;28;10887;-64
2022/12/27 08:37:07;;;;;;;;;1.00;0.00;;;;;5.57;73.37;102346.06;5059030;28;10781;-66
2022/12/27 08:39:34;;;;;;;;;2.00;1.00;;;;;5.49;74.25;102349.38;5051150;28;10882;-65
2022/12/27 08:42:00;;;;;;;;;2.00;2.00;;;;;5.46;74.21;102339.78;5060464;28;10947;-66
2022/12/27 08:44:27;;;;;;;;;1.00;1.00;;;;;5.46;74.94;102354.94;5062980;28;11019;-65
2022/12/27 08:46:53;;;;;;;;;2.50;2.50;;;;;5.47;74.92;102346.00;5071436;28;10917;-66
2022/12/27 08:49:20;;;;;;;;;1.75;1.50;;;;;5.50;74.98;102336.84;5054385;28;10954;-66
2022/12/27 08:51:46;;;;;;;;;4.50;1.25;;;;;5.50;74.29;102335.03;5062230;28;11646;-64
2022/12/27 08:54:12;;;;;;;;;1.50;1.50;;;;;5.54;75.10;102331.13;5067516;28;11199;-64
2022/12/27 08:56:39;;;;;;;;;1.00;1.00;;;;;5.62;75.48;102334.03;5070660;28;11141;-66
2022/12/27 08:59:05;;;;;;;;;0.50;0.25;;;;;5.66;75.21;102338.16;5070106;28;11083;-65
2022/12/27 09:01:32;;;;;;;;;5.25;4.00;;;;;5.64;74.76;102336.59;5061340;28;11101;-66
2022/12/27 09:03:58;;;;;;;;;4.50;3.00;;;;;5.67;75.26;102334.53;5058845;28;10980;-67
2022/12/27 09:06:26;;;;;;;;;2.00;1.00;;;;;5.72;74.97;102338.66;5062757;28;11110;-66
2022/12/27 09:08:54;;;;;;;;;2.00;2.00;;;;;5.67;74.83;102336.31;5068321;28;10968;-66
2022/12/27 09:11:24;;;;;;;;;1.50;1.50;;;;;5.70;75.18;102341.41;5066251;28;11718;-66
2022/12/27 09:13:51;;;;;;;;;4.25;2.00;;;;;5.76;75.48;102351.63;5068024;28;11176;-65
2022/12/27 09:16:26;;;;;;;;;5.00;3.00;;;;;5.76;75.19;102350.78;5063002;28;11049;-66
2022/12/27 09:18:54;;;;;;;;;4.00;4.00;;;;;5.77;75.64;102355.13;5060806;28;11308;-66
2022/12/27 09:21:26;;;;;;;;;4.75;1.75;;;;;5.81;75.20;102352.09;5057422;28;11218;-66
2022/12/27 09:23:53;;;;;;;;;2.25;2.25;;;;;5.89;75.71;102352.31;5068588;28;11085;-67
2022/12/27 09:26:22;;;;;;;;;4.50;3.00;;;;;5.89;75.70;102354.13;5066860;28;11669;-65
2022/12/27 09:28:49;;;;;;;;;1.00;1.00;;;;;5.91;75.66;102362.84;5065666;28;11032;-65
2022/12/27 09:31:18;;;;;;;;;4.00;4.00;;;;;5.83;75.48;102351.94;5052890;28;11017;-66
2022/12/27 09:33:45;;;;;;;;;1.25;1.25;;;;;5.87;76.13;102358.75;5066397;28;11179;-66
2022/12/27 09:36:13;;;;;;;;;2.50;2.50;;;;;5.90;75.65;102348.66;5069119;28;11753;-66
2022/12/27 09:38:40;;;;;;;;;2.00;2.00;;;;;5.93;75.53;102359.13;5066047;28;13256;-65
2022/12/27 09:41:28;;;;;;;;;4.00;3.50;;;;;5.93;75.89;102360.97;5064676;28;10944;-65
2022/12/27 09:44:37;;;;;;;;;5.25;1.75;;;;;5.97;76.14;102359.72;5059791;28;11245;-67
2022/12/27 09:47:33;;;;;;;;;2.00;2.00;;;;;6.04;76.13;102346.72;5064171;28;11706;-67
2022/12/27 09:50:13;;;;;;;;;1.00;1.00;;;;;6.14;75.92;102351.16;5060787;28;11727;-67
2022/12/27 09:53:09;;;;;;;;;1.00;1.00;;;;;6.22;75.66;102357.69;5059112;28;10961;-65
2022/12/27 09:55:43;;;;;;;;;3.00;1.00;;;;;6.28;76.38;102341.09;5057540;28;10937;-68
2022/12/27 09:58:27;;;;;;;;;7.50;4.00;;;;;6.35;75.90;102344.97;5065640;28;10955;-65
2022/12/27 10:00:53;;;;;;;;;4.00;1.75;;;;;6.38;75.91;102350.06;5067082;28;11044;-65
2022/12/27 10:03:24;;;;;;;;;3.00;3.00;;;;;6.45;75.75;102351.25;5064439;28;10942;-65
2022/12/27 10:06:14;;;;;;;;;2.25;1.75;;;;;6.57;75.70;102362.75;5053258;28;11082;-65
2022/12/27 10:08:59;;;;;;;;;2.50;2.00;;;;;6.62;76.04;102376.56;5058206;28;10876;-66
2022/12/27 10:11:46;;;;;;;;;2.50;2.50;;;;;6.75;79.74;102371.84;5067061;28;10815;-59
2022/12/27 10:14:59;;;;;;;;;2.25;1.00;;;;;7.13;77.82;102375.69;5054602;28;10703;-64
2022/12/27 10:17:45;;;;;;;;;3.75;2.50;;;;;7.00;75.68;102367.91;5023211;28;10666;-65
2022/12/27 10:20:34;;;;;;;;;4.75;4.00;;;;;6.94;75.98;102369.28;5063188;28;10839;-65
2022/12/27 10:23:10;;;;;;;;;4.50;2.00;;;;;6.90;75.30;102370.53;5052839;28;10709;-65
2022/12/27 10:25:38;;;;;;;;;4.50;4.50;;;;;6.83;75.53;102363.16;5066280;28;10779;-66
2022/12/27 10:28:15;;;;;;;;;6.25;4.25;;;;;6.77;75.42;102364.56;5063985;28;10630;-67
2022/12/27 10:30:42;;;;;;;;;4.00;4.00;;;;;6.71;75.28;102358.88;5063969;28;10945;-65
2022/12/27 10:33:23;;;;;;;;;5.00;4.25;;;;;6.64;75.10;102367.44;5060063;28;10901;-66
2022/12/27 10:35:50;;;;;;;;;6.00;4.00;;;;;6.57;76.28;102370.75;5068861;28;10872;-66
2022/12/27 10:38:16;;;;;;;;;5.50;3.75;;;;;6.60;75.96;102378.50;5071731;28;10963;-65
2022/12/27 10:41:24;;;;;;;;;1.50;1.50;;;;;6.56;76.39;102371.72;5071418;28;11004;-66
2022/12/27 10:43:52;;;;;;;;;6.00;4.00;;;;;6.51;76.27;102365.91;5011036;28;10789;-64
2022/12/27 10:46:23;;;;;;;;;5.75;3.00;;;;;6.45;76.01;102369.97;5061373;28;11002;-66
2022/12/27 10:49:07;;;;;;;;;8.00;4.00;;;;;6.42;76.88;102360.38;5068088;28;10883;-65
2022/12/27 10:51:48;;;;;;;;;4.00;4.00;;;;;6.56;77.00;102356.53;5071839;28;11106;-65
2022/12/27 10:54:22;;;;;;;;;5.50;4.00;;;;;6.63;76.76;102367.53;5064342;28;11478;-66
2022/12/27 10:56:49;;;;;;;;;4.00;2.00;;;;;6.71;76.43;102374.94;5065037;28;10921;-65
2022/12/27 10:59:16;;;;;;;;;4.00;4.00;;;;;6.76;76.47;102373.53;5063788;28;10903;-66
2022/12/27 11:01:49;;;;;;;;;8.00;5.50;;;;;6.76;76.36;102368.19;5058750;28;10863;-65
2022/12/27 11:04:22;;;;;;;;;4.50;4.50;;;;;6.78;76.79;102376.94;5071241;28;10945;-65
2022/12/27 11:07:09;;;;;;;;;4.50;4.50;;;;;6.75;76.16;102369.16;5064748;28;10892;-65
2022/12/27 11:09:37;;;;;;;;;4.25;4.00;;;;;6.86;75.91;102371.78;5076164;28;10881;-66
2022/12/27 11:12:10;;;;;;;;;3.50;3.50;;;;;6.90;75.85;102367.00;5056746;28;10944;-65
2022/12/27 11:14:37;;;;;;;;;7.25;6.25;;;;;6.79;76.30;102357.22;5070941;28;10806;-66
2022/12/27 11:17:09;;;;;;;;;4.00;4.00;;;;;6.75;76.13;102365.66;5066203;28;10903;-66
2022/12/27 11:19:38;;;;;;;;;5.25;4.00;;;;;6.78;76.03;102363.56;5070410;28;10987;-66
2022/12/27 11:22:07;;;;;;;;;5.00;5.00;;;;;6.70;75.80;102368.72;5056028;28;10971;-66
2022/12/27 11:24:34;;;;;;;;;7.25;5.00;;;;;6.71;76.96;102365.06;5071631;28;10759;-67
2022/12/27 11:27:02;;;;;;;;;4.00;2.00;;;;;6.73;76.19;102365.78;5071779;28;10738;-65
2022/12/27 11:29:30;;;;;;;;;4.50;4.00;;;;;6.79;77.07;102359.91;5062122;28;10953;-67
2022/12/27 11:32:06;;;;;;;;;6.00;4.50;;;;;6.75;76.85;102366.50;5071413;28;10717;-65
2022/12/27 11:34:36;;;;;;;;;5.00;4.00;;;;;6.76;76.53;102356.63;5061948;28;11527;-67
2022/12/27 11:37:13;;;;;;;;;5.50;4.00;;;;;6.79;76.72;102361.72;5065033;28;10807;-66
2022/12/27 11:39:44;;;;;;;;;5.00;5.00;;;;;6.75;76.33;102365.66;5062124;28;10706;-65
2022/12/27 11:42:31;;;;;;;;;4.50;4.50;;;;;6.76;76.74;102368.19;5071207;28;11158;-65
2022/12/27 11:45:08;;;;;;;;;5.25;2.50;;;;;6.82;76.37;102361.47;5066830;28;10956;-65
2022/12/27 11:47:42;;;;;;;;;5.00;5.00;;;;;6.84;76.53;102355.00;5066072;28;10973;-65
2022/12/27 11:50:26;;;;;;;;;8.25;7.00;;;;;6.79;77.35;102348.34;5067052;28;11414;-66
2022/12/27 11:53:23;;;;;;;;;8.75;7.75;;;;;6.74;77.44;102353.25;5055294;28;11074;-67
2022/12/27 11:56:13;;;;;;;;;9.00;8.25;;;;;6.78;76.91;102339.47;5062267;28;10960;-64
2022/12/27 11:58:54;;;;;;;;;11.75;8.50;;;;;6.73;76.76;102347.06;5071328;28;11608;-63
2022/12/27 12:01:39;;;;;;;;;11.00;9.00;;;;;6.75;77.11;102352.28;5064237;28;10928;-66
2022/12/27 12:04:41;;;;;;;;;9.50;9.50;;;;;6.67;77.52;102331.53;5070884;28;11260;-66
2022/12/27 12:07:20;;;;;;;;;11.50;10.75;;;;;6.77;77.73;102332.44;5038214;28;11073;-68
2022/12/27 12:10:20;;;;;;;;;11.00;7.50;;;;;6.86;77.60;102325.44;5051342;28;11103;-65
2022/12/27 12:13:34;;;;;;;;;6.50;6.00;;;;;6.86;77.83;102328.09;5040365;28;11705;-65
2022/12/27 12:16:30;;;;;;;;;10.00;8.75;;;;;6.79;77.42;102316.22;5051010;28;11068;-65
2022/12/27 12:19:25;;;;;;;;;3.75;3.50;;;;;6.84;78.11;102303.28;5065171;28;11063;-65
2022/12/27 12:22:31;;;;;;;;;10.50;9.00;;;;;6.85;77.86;102303.19;5061512;28;10872;-67
2022/12/27 12:25:35;;;;;;;;;11.75;10.50;;;;;6.81;78.33;102298.22;5064481;28;11154;-68
2022/12/27 12:28:23;;;;;;;;;13.25;10.00;;;;;6.76;77.74;102293.25;5068709;28;11958;-66
2022/12/27 12:31:40;;;;;;;;;9.25;9.25;;;;;6.83;78.28;102288.22;5059367;28;12199;-67
2022/12/27 12:34:18;;;;;;;;;11.00;9.50;;;;;6.85;78.26;102280.91;5064734;28;11160;-66
2022/12/27 12:37:04;;;;;;;;;14.00;11.50;;;;;6.84;78.28;102269.34;5070635;28;11055;-64
2022/12/27 12:40:00;;;;;;;;;11.75;10.00;;;;;6.84;78.65;102272.00;5070111;28;11154;-67
2022/12/27 12:43:01;;;;;;;;;14.25;12.00;;;;;6.82;78.07;102255.25;5056055;28;11604;-65
2022/12/27 12:45:42;;;;;;;;;12.75;12.25;;;;;6.80;78.23;102249.19;5068264;28;11158;-65
2022/12/27 12:48:27;;;;;;;;;13.50;12.00;;;;;6.83;78.50;102248.06;5069854;28;11147;-66
2022/12/27 12:51:08;;;;;;;;;9.00;9.00;;;;;6.88;79.22;102246.69;5069868;28;11528;-67
2022/12/27 12:54:04;;;;;;;;;13.25;11.75;;;;;6.97;78.83;102241.50;5070238;28;11214;-66
2022/12/27 12:57:05;;;;;;;;;14.50;12.25;;;;;6.99;78.34;102242.22;5069968;28;10923;-65
2022/12/27 13:00:03;;;;;;;;;12.00;12.00;;;;;6.96;78.94;102237.13;5067954;28;11203;-66
2022/12/27 13:03:15;;;;;;;;;18.00;12.50;;;;;6.90;78.14;102235.84;5056176;28;11143;-65
2022/12/27 13:06:03;;;;;;;;;11.25;11.00;;;;;6.84;79.08;102226.50;5049738;28;11164;-65
2022/12/27 13:08:54;;;;;;;;;9.25;9.25;;;;;6.80;79.33;102219.75;5057157;28;11278;-65
2022/12/27 13:11:37;;;;;;;;;10.75;8.50;;;;;6.83;78.99;102214.13;5066908;28;11094;-67
2022/12/27 13:14:03;;;;;;;;;8.00;8.00;;;;;6.90;79.25;102212.59;5063310;28;11027;-66
2022/12/27 13:16:48;;;;;;;;;15.50;12.00;;;;;6.90;79.67;102211.75;5069962;28;11170;-66
2022/12/27 13:19:36;;;;;;;;;14.00;9.50;;;;;7.04;79.05;102206.00;5065763;28;11201;-64
2022/12/27 13:22:24;;;;;;;;;14.00;13.50;;;;;7.11;78.59;102204.47;5062657;28;11061;-65
2022/12/27 13:25:06;;;;;;;;;18.75;15.50;;;;;7.16;78.72;102196.03;5049431;28;11217;-64
2022/12/27 13:27:56;;;;;;;;;11.75;9.50;;;;;7.11;78.60;102203.63;5063595;28;11482;-65
2022/12/27 13:30:40;;;;;;;;;7.75;7.75;;;;;7.11;78.91;102200.94;5054862;28;11923;-66
2022/12/27 13:33:24;;;;;;;;;12.50;10.50;;;;;7.06;78.76;102198.69;5069872;28;10967;-65
2022/12/27 13:36:18;;;;;;;;;12.25;10.50;;;;;7.04;79.23;102183.75;5049554;28;10924;-65
2022/12/27 13:39:00;;;;;;;;;13.50;13.25;;;;;7.13;79.13;102188.25;5050542;28;11017;-65